Time;durP1;ratioP1;P1;durP2;ratioP2;P2;SDS_P1;SDS_P2;PMS_P1;PMS_P2;Temp;Humidity;BMP_temperature;BMP_pressure;BME280_temperature;BME280_humidity;BME280_pressure;Samples;Min_cycle;Max_cycle;Signal;HPM_P1;HPM_P2
2024/01/15 00:02:15;;;;;;;16.07;9.83;;;-1.50;1.00;;;;;;5013222;28;20209;-70
2024/01/15 00:04:41;;;;;;;17.50;10.40;;;-1.50;1.00;;;;;;4995598;28;20197;-70
2024/01/15 00:07:07;;;;;;;17.10;9.70;;;-1.40;1.00;;;;;;5013449;28;20214;-71
2024/01/15 00:09:33;;;;;;;14.13;8.13;;;-1.30;1.00;;;;;;5013537;28;20215;-69
2024/01/15 00:12:00;;;;;;;13.40;8.17;;;-1.20;1.00;;;;;;5013192;28;20593;-70
2024/01/15 00:14:26;;;;;;;16.92;9.15;;;-1.20;1.00;;;;;;5012755;28;20446;-70
2024/01/15 00:16:54;;;;;;;14.95;9.80;;;-1.10;1.00;;;;;;5013227;28;20183;-70
2024/01/15 00:19:21;;;;;;;15.10;8.23;;;-1.10;1.00;;;;;;4995420;28;20203;-69
2024/01/15 00:21:47;;;;;;;16.60;10.32;;;-1.00;1.00;;;;;;5013208;28;20263;-70
2024/01/15 00:24:12;;;;;;;15.17;8.23;;;-1.00;1.00;;;;;;5013304;28;20636;-69
2024/01/15 00:26:38;;;;;;;19.83;9.57;;;-0.90;1.00;;;;;;5013536;28;20446;-69
2024/01/15 00:29:03;;;;;;;16.40;10.30;;;-0.90;1.00;;;;;;4995490;28;20288;-71
2024/01/15 00:31:29;;;;;;;18.07;9.33;;;-0.90;1.00;;;;;;5013072;28;20180;-72
2024/01/15 00:33:57;;;;;;;19.75;11.60;;;-0.90;1.00;;;;;;5012642;28;20196;-70
2024/01/15 00:36:23;;;;;;;17.15;9.27;;;-0.80;1.00;;;;;;4995349;28;20192;-69
2024/01/15 00:38:49;;;;;;;19.95;11.05;;;-0.80;1.00;;;;;;5012744;28;20271;-71
2024/01/15 00:41:15;;;;;;;16.80;8.13;;;-0.80;1.00;;;;;;5012700;28;20265;-70
2024/01/15 00:43:41;;;;;;;12.75;6.82;;;-0.80;1.00;;;;;;4994906;28;20443;-70
2024/01/15 00:46:07;;;;;;;19.67;10.50;;;-0.80;1.00;;;;;;5013059;28;20578;-69
2024/01/15 00:48:32;;;;;;;13.83;8.43;;;-0.80;1.00;;;;;;5013107;28;20832;-69
2024/01/15 00:50:58;;;;;;;18.27;11.30;;;-0.70;1.00;;;;;;5013155;28;20178;-69
2024/01/15 00:53:32;;;;;;;15.30;8.67;;;-0.70;1.00;;;;;;5013505;28;20279;-70
2024/01/15 00:55:58;;;;;;;13.65;8.70;;;-0.80;1.00;;;;;;5014527;28;20171;-72
2024/01/15 00:58:24;;;;;;;15.37;8.07;;;-0.80;1.00;;;;;;5013716;28;20579;-69
2024/01/15 01:00:49;;;;;;;16.73;9.60;;;-0.70;1.00;;;;;;5014188;28;20258;-70
2024/01/15 01:03:16;;;;;;;17.27;9.37;;;-0.70;1.00;;;;;;5013140;28;20231;-69
2024/01/15 01:05:41;;;;;;;13.68;7.68;;;-0.70;1.00;;;;;;5013165;28;20606;-69
2024/01/15 01:08:07;;;;;;;19.57;7.67;;;-0.70;1.00;;;;;;5013844;28;20290;-69
2024/01/15 01:10:32;;;;;;;15.20;8.50;;;-0.70;1.00;;;;;;5013507;28;20172;-70
2024/01/15 01:12:58;;;;;;;17.67;9.80;;;-0.70;1.00;;;;;;5012315;28;20238;-71
2024/01/15 01:15:30;;;;;;;17.17;8.77;;;-0.70;1.00;;;;;;5012808;28;20401;-69
2024/01/15 01:17:55;;;;;;;15.35;7.25;;;-0.60;1.00;;;;;;5013273;28;20192;-70
2024/01/15 01:20:21;;;;;;;12.83;7.50;;;-0.60;1.00;;;;;;5012985;28;20258;-69
2024/01/15 01:22:46;;;;;;;14.73;7.80;;;-0.60;1.00;;;;;;5013276;28;20188;-70
2024/01/15 01:25:12;;;;;;;17.70;8.20;;;-0.60;1.00;;;;;;4995586;28;20207;-69
2024/01/15 01:27:38;;;;;;;12.43;6.80;;;-0.60;1.00;;;;;;5012793;28;20252;-69
2024/01/15 01:30:04;;;;;;;15.50;9.00;;;-0.60;1.00;;;;;;5012567;28;20711;-70
2024/01/15 01:32:30;;;;;;;13.68;8.02;;;-0.60;1.00;;;;;;5012428;28;20187;-70
2024/01/15 01:34:55;;;;;;;13.17;7.60;;;-0.60;1.00;;;;;;5012511;28;20168;-70
2024/01/15 01:37:21;;;;;;;16.90;8.57;;;-0.50;1.00;;;;;;4994966;28;20670;-69
2024/01/15 01:39:46;;;;;;;11.90;8.60;;;-0.50;1.00;;;;;;4994644;28;20180;-70
2024/01/15 01:42:12;;;;;;;13.57;7.67;;;-0.50;1.00;;;;;;5012536;28;20194;-69
2024/01/15 01:44:38;;;;;;;17.83;7.50;;;-0.60;1.00;;;;;;4994290;28;20338;-69
2024/01/15 01:47:05;;;;;;;13.80;8.23;;;-0.60;1.00;;;;;;4994988;28;20188;-69
2024/01/15 01:49:30;;;;;;;13.32;7.70;;;-0.60;1.00;;;;;;5013300;28;20215;-70
2024/01/15 01:51:58;;;;;;;14.47;7.97;;;-0.60;1.00;;;;;;5016393;28;20248;-70
2024/01/15 01:54:26;;;;;;;18.88;9.88;;;-0.50;1.00;;;;;;5015868;28;20507;-70
2024/01/15 01:56:52;;;;;;;14.07;6.82;;;-0.50;1.00;;;;;;5016157;28;20179;-70
2024/01/15 01:59:18;;;;;;;15.93;8.60;;;-0.60;1.00;;;;;;5016486;28;20527;-71
2024/01/15 02:01:44;;;;;;;11.93;7.20;;;-0.50;1.00;;;;;;5016332;28;20422;-70
2024/01/15 02:04:13;;;;;;;14.68;8.40;;;-0.60;1.00;;;;;;5015891;28;20430;-70
2024/01/15 02:06:39;;;;;;;12.60;7.13;;;-0.60;1.00;;;;;;5016174;28;20176;-68
2024/01/15 02:09:05;;;;;;;12.23;7.60;;;-0.50;1.00;;;;;;5016020;28;20315;-70
2024/01/15 02:11:31;;;;;;;14.07;7.97;;;-0.50;1.00;;;;;;5016025;28;20543;-70
2024/01/15 02:13:57;;;;;;;13.13;6.93;;;-0.50;1.00;;;;;;5015585;28;20437;-71
2024/01/15 02:16:22;;;;;;;16.43;7.87;;;-0.50;1.00;;;;;;5015836;28;20172;-70
2024/01/15 02:18:48;;;;;;;16.40;8.37;;;-0.50;1.00;;;;;;4998331;28;20518;-69
2024/01/15 02:21:14;;;;;;;12.73;9.87;;;-0.50;1.00;;;;;;5016634;28;20195;-69
2024/01/15 02:23:39;;;;;;;11.17;8.13;;;-0.60;1.00;;;;;;5015846;28;20230;-70
2024/01/15 02:26:06;;;;;;;19.37;7.70;;;-0.60;1.00;;;;;;5016224;28;20175;-69
2024/01/15 02:28:32;;;;;;;16.83;9.38;;;-0.60;1.00;;;;;;4998759;28;20204;-70
2024/01/15 02:30:58;;;;;;;11.32;6.60;;;-0.50;1.00;;;;;;4998656;28;20185;-69
2024/01/15 02:33:24;;;;;;;14.63;7.57;;;-0.50;1.00;;;;;;4998438;28;20207;-69
2024/01/15 02:35:50;;;;;;;14.37;8.37;;;-0.50;1.00;;;;;;5015855;28;20190;-69
2024/01/15 02:38:16;;;;;;;14.53;7.53;;;-0.50;1.00;;;;;;5015851;28;20488;-70
2024/01/15 02:40:41;;;;;;;16.63;7.75;;;-0.50;1.00;;;;;;4999182;28;20270;-71
2024/01/15 02:43:07;;;;;;;15.07;8.03;;;-0.50;1.00;;;;;;5017211;28;20455;-69
2024/01/15 02:45:32;;;;;;;12.30;6.60;;;-0.50;1.00;;;;;;5015704;28;20534;-71
2024/01/15 02:47:58;;;;;;;13.33;7.47;;;-0.60;1.00;;;;;;5015464;28;20172;-69
2024/01/15 02:50:24;;;;;;;12.40;6.80;;;-0.60;1.00;;;;;;4997490;28;20277;-69
2024/01/15 02:52:50;;;;;;;13.50;8.97;;;-0.60;1.00;;;;;;5015299;28;20681;-68
2024/01/15 02:55:16;;;;;;;13.00;8.27;;;-0.60;1.00;;;;;;4997376;28;20214;-69
2024/01/15 02:57:41;;;;;;;11.53;7.00;;;-0.70;1.00;;;;;;5015051;28;20180;-68
2024/01/15 03:00:07;;;;;;;18.73;7.63;;;-0.80;1.00;;;;;;4997479;28;20176;-69
2024/01/15 03:02:37;;;;;;;16.77;6.75;;;-0.80;1.00;;;;;;5015136;28;20179;-69
2024/01/15 03:05:02;;;;;;;21.83;9.30;;;-0.90;1.00;;;;;;5015450;28;20202;-68
2024/01/15 03:07:28;;;;;;;18.43;8.73;;;-0.90;1.00;;;;;;5016229;28;20172;-69
2024/01/15 03:09:54;;;;;;;13.67;7.87;;;-0.90;1.00;;;;;;5019224;28;20241;-69
2024/01/15 03:12:19;;;;;;;15.00;8.00;;;-0.90;1.00;;;;;;5030151;28;20519;-70
2024/01/15 03:14:45;;;;;;;13.67;7.47;;;-0.80;1.00;;;;;;5026198;28;20195;-69
2024/01/15 03:17:13;;;;;;;17.43;7.40;;;-0.80;1.00;;;;;;5026038;28;20186;-70
2024/01/15 03:19:39;;;;;;;13.73;5.78;;;-0.80;1.00;;;;;;5006624;28;20694;-69
2024/01/15 03:22:04;;;;;;;16.37;7.20;;;-0.80;1.00;;;;;;5018600;28;20176;-69
2024/01/15 03:24:33;;;;;;;14.67;8.60;;;-0.80;1.00;;;;;;5016598;28;20205;-69
2024/01/15 03:26:58;;;;;;;14.82;6.88;;;-0.70;1.00;;;;;;5016983;28;20368;-69
2024/01/15 03:29:24;;;;;;;12.57;6.87;;;-0.70;1.00;;;;;;5016093;28;20216;-70
2024/01/15 03:31:49;;;;;;;11.63;6.23;;;-0.70;1.00;;;;;;5016056;28;20176;-69
2024/01/15 03:34:15;;;;;;;13.87;7.00;;;-0.70;1.00;;;;;;5015443;28;20200;-69
2024/01/15 03:36:41;;;;;;;18.07;8.80;;;-0.80;1.00;;;;;;5016070;28;20180;-69
2024/01/15 03:39:07;;;;;;;10.57;6.07;;;-0.80;1.00;;;;;;5014649;28;20246;-68
2024/01/15 03:41:33;;;;;;;14.00;8.25;;;-0.80;1.00;;;;;;5014702;28;20187;-68
2024/01/15 03:43:59;;;;;;;14.50;7.70;;;-0.80;1.00;;;;;;5014123;28;20194;-69
2024/01/15 03:46:24;;;;;;;11.60;6.80;;;-0.80;1.00;;;;;;5015051;28;20178;-69
2024/01/15 03:48:50;;;;;;;18.30;8.23;;;-0.80;1.00;;;;;;5014099;28;20192;-69
2024/01/15 03:51:17;;;;;;;10.60;7.33;;;-0.70;1.00;;;;;;5014227;28;20175;-69
2024/01/15 03:53:43;;;;;;;15.13;7.38;;;-0.70;1.00;;;;;;4995836;28;20197;-68
2024/01/15 03:56:08;;;;;;;14.20;7.67;;;-0.60;1.00;;;;;;5014068;28;20178;-69
2024/01/15 03:58:37;;;;;;;14.00;7.27;;;-0.60;1.00;;;;;;4996245;28;20726;-69
2024/01/15 04:01:03;;;;;;;14.90;7.63;;;-0.60;1.00;;;;;;5013697;28;20254;-70
2024/01/15 04:03:28;;;;;;;13.60;7.87;;;-0.50;1.00;;;;;;5013597;28;20661;-69
2024/01/15 04:05:57;;;;;;;18.43;8.73;;;-0.50;1.00;;;;;;5013605;28;20237;-69
2024/01/15 04:08:22;;;;;;;15.45;7.78;;;-0.50;1.00;;;;;;4995920;28;20207;-69
2024/01/15 04:10:48;;;;;;;16.37;7.93;;;-0.50;1.00;;;;;;5013865;28;20176;-68
2024/01/15 04:13:13;;;;;;;15.40;7.87;;;-0.50;1.00;;;;;;5012515;28;20195;-69
2024/01/15 04:15:39;;;;;;;15.73;8.20;;;-0.40;1.00;;;;;;5013310;28;20189;-68
2024/01/15 04:18:05;;;;;;;17.17;7.90;;;-0.40;1.00;;;;;;5013038;28;20179;-69
2024/01/15 04:20:31;;;;;;;14.18;7.97;;;-0.40;1.00;;;;;;5013298;28;20168;-69
2024/01/15 04:22:59;;;;;;;17.60;9.07;;;-0.40;1.00;;;;;;5012853;28;20242;-69
2024/01/15 04:25:25;;;;;;;15.60;8.55;;;-0.40;1.00;;;;;;5013216;28;20176;-69
2024/01/15 04:27:50;;;;;;;16.70;7.43;;;-0.40;1.00;;;;;;5012963;28;20743;-69
2024/01/15 04:30:16;;;;;;;14.60;8.80;;;-0.40;1.00;;;;;;5013217;28;20180;-68
2024/01/15 04:32:42;;;;;;;13.70;8.40;;;-0.40;1.00;;;;;;5012781;28;20262;-69
2024/01/15 04:35:07;;;;;;;11.50;7.17;;;-0.40;1.00;;;;;;5012913;28;20225;-69
2024/01/15 04:37:33;;;;;;;17.50;9.33;;;-0.40;1.00;;;;;;5012524;28;20187;-70
2024/01/15 04:39:58;;;;;;;13.90;9.20;;;-0.30;1.00;;;;;;5012769;28;20234;-68
2024/01/15 04:42:24;;;;;;;15.60;9.17;;;-0.40;1.00;;;;;;5012672;28;20209;-68
2024/01/15 04:44:50;;;;;;;14.07;8.77;;;-0.40;1.00;;;;;;5012782;28;20172;-68
2024/01/15 04:47:15;;;;;;;16.20;8.10;;;-0.40;1.00;;;;;;5012867;28;20168;-69
2024/01/15 04:49:41;;;;;;;14.60;9.63;;;-0.50;1.50;;;;;;5012367;28;20261;-69
2024/01/15 04:52:06;;;;;;;11.03;7.13;;;-0.50;1.90;;;;;;5012472;28;20643;-69
2024/01/15 04:54:35;;;;;;;22.47;8.83;;;-0.60;1.90;;;;;;5012061;28;20298;-69
2024/01/15 04:57:00;;;;;;;15.35;7.55;;;-0.50;2.70;;;;;;5012521;28;20176;-69
2024/01/15 04:59:26;;;;;;;17.23;9.30;;;-0.60;2.30;;;;;;5012279;28;20198;-68
2024/01/15 05:01:51;;;;;;;15.87;8.60;;;-0.60;2.50;;;;;;5012198;28;20186;-69
2024/01/15 05:04:17;;;;;;;16.17;8.70;;;-0.60;3.30;;;;;;5012175;28;20318;-68
2024/01/15 05:06:42;;;;;;;12.50;8.00;;;-0.60;3.70;;;;;;5012471;28;20554;-69
2024/01/15 05:09:08;;;;;;;16.10;10.47;;;-0.60;3.90;;;;;;5012041;28;20275;-68
2024/01/15 05:11:34;;;;;;;16.43;9.20;;;-0.70;4.50;;;;;;4994802;28;20659;-69
2024/01/15 05:14:00;;;;;;;20.23;9.20;;;-0.70;5.30;;;;;;5012310;28;20215;-69
2024/01/15 05:16:25;;;;;;;19.87;9.67;;;-0.70;5.50;;;;;;4994128;28;20230;-69
2024/01/15 05:18:51;;;;;;;16.40;8.97;;;-0.60;6.40;;;;;;5012321;28;20430;-70
2024/01/15 05:21:16;;;;;;;15.30;8.97;;;-0.70;6.20;;;;;;5012503;28;20188;-69
2024/01/15 05:23:42;;;;;;;23.90;9.90;;;-0.60;6.30;;;;;;5012097;28;20275;-69
2024/01/15 05:26:08;;;;;;;19.97;9.93;;;-0.60;6.60;;;;;;5012225;28;20183;-69
2024/01/15 05:28:34;;;;;;;14.02;8.27;;;-0.60;6.90;;;;;;4994391;28;20663;-68
2024/01/15 05:31:00;;;;;;;13.77;8.63;;;-0.60;7.20;;;;;;5012018;28;20200;-69
2024/01/15 05:33:25;;;;;;;19.77;10.00;;;-0.60;7.40;;;;;;5011523;28;20622;-69
2024/01/15 05:35:51;;;;;;;17.50;7.90;;;-0.60;7.60;;;;;;5011824;28;20552;-68
2024/01/15 05:38:17;;;;;;;18.00;10.07;;;-0.60;7.90;;;;;;5011717;28;20180;-69
2024/01/15 05:40:42;;;;;;;15.00;9.30;;;-0.60;8.00;;;;;;5011521;28;20524;-69
2024/01/15 05:43:08;;;;;;;15.23;8.20;;;-0.60;7.20;;;;;;5011418;28;20241;-68
2024/01/15 05:45:35;;;;;;;14.90;8.67;;;-0.60;7.00;;;;;;5011275;28;20236;-68
2024/01/15 05:48:01;;;;;;;14.23;8.48;;;-0.60;7.80;;;;;;5011154;28;20215;-68
2024/01/15 05:50:26;;;;;;;14.83;9.90;;;-0.50;7.40;;;;;;5011474;28;20227;-68
2024/01/15 05:52:52;;;;;;;19.20;10.00;;;-0.50;6.70;;;;;;5011988;28;20203;-71
2024/01/15 05:55:18;;;;;;;12.70;7.13;;;-0.60;6.60;;;;;;4996048;28;20195;-71
2024/01/15 05:57:44;;;;;;;12.23;7.47;;;-0.60;6.60;;;;;;5012981;28;20176;-72
2024/01/15 06:00:10;;;;;;;11.65;8.75;;;-0.60;6.80;;;;;;5011986;28;20186;-71
2024/01/15 06:02:38;;;;;;;16.73;10.63;;;-0.50;5.70;;;;;;5012043;28;20659;-72
2024/01/15 06:05:04;;;;;;;16.75;8.10;;;-0.50;5.60;;;;;;5012050;28;20208;-71
2024/01/15 06:07:29;;;;;;;10.63;6.77;;;-0.50;4.80;;;;;;5012288;28;20203;-72
2024/01/15 06:09:56;;;;;;;16.93;8.70;;;-0.50;4.80;;;;;;5011997;28;20266;-71
2024/01/15 06:12:22;;;;;;;15.43;9.85;;;-0.40;4.50;;;;;;5012312;28;20226;-72
2024/01/15 06:14:48;;;;;;;12.98;8.25;;;-0.40;4.10;;;;;;5012180;28;20187;-71
2024/01/15 06:17:14;;;;;;;14.17;8.33;;;-0.40;4.80;;;;;;4994781;28;20566;-71
2024/01/15 06:19:39;;;;;;;15.47;9.17;;;-0.40;4.50;;;;;;5012023;28;20478;-71
2024/01/15 06:22:05;;;;;;;20.00;9.87;;;-0.50;4.90;;;;;;4994743;28;20184;-72
2024/01/15 06:24:30;;;;;;;16.03;9.37;;;-0.50;4.70;;;;;;5011996;28;20277;-71
2024/01/15 06:26:56;;;;;;;13.80;8.93;;;-0.50;4.80;;;;;;5011786;28;20172;-70
2024/01/15 06:29:21;;;;;;;17.37;9.83;;;-0.50;4.30;;;;;;5010866;28;20329;-71
2024/01/15 06:31:47;;;;;;;18.73;9.40;;;-0.50;4.40;;;;;;5010916;28;20175;-72
2024/01/15 06:34:12;;;;;;;13.80;8.90;;;-0.50;4.40;;;;;;5010840;28;20199;-74
2024/01/15 06:36:38;;;;;;;21.00;11.50;;;-0.50;4.40;;;;;;5014117;28;20202;-71
2024/01/15 06:39:04;;;;;;;14.93;9.17;;;-0.50;4.40;;;;;;5015042;28;20627;-71
2024/01/15 06:41:29;;;;;;;12.93;7.70;;;-0.50;3.70;;;;;;5015418;28;20658;-71
2024/01/15 06:43:55;;;;;;;17.80;9.67;;;-0.50;3.60;;;;;;5014792;28;20200;-72
2024/01/15 06:46:21;;;;;;;11.87;8.23;;;-0.50;3.70;;;;;;5015090;28;20722;-71
2024/01/15 06:48:47;;;;;;;16.00;8.50;;;-0.50;3.20;;;;;;5014799;28;20553;-70
2024/01/15 06:51:14;;;;;;;14.60;8.90;;;-0.50;3.50;;;;;;4996860;28;20265;-69
2024/01/15 06:53:39;;;;;;;14.60;9.13;;;-0.50;3.60;;;;;;5013932;28;20188;-69
2024/01/15 06:56:05;;;;;;;15.00;8.63;;;-0.40;2.90;;;;;;5014627;28;20194;-70
2024/01/15 06:58:33;;;;;;;18.03;9.60;;;-0.50;2.60;;;;;;5014410;28;20173;-69
2024/01/15 07:00:59;;;;;;;20.45;9.05;;;-0.40;3.50;;;;;;5014118;28;20211;-69
2024/01/15 07:03:25;;;;;;;14.38;9.80;;;-0.40;2.40;;;;;;5013823;28;20199;-69
2024/01/15 07:05:51;;;;;;;12.90;7.37;;;-0.40;1.90;;;;;;5013946;28;20180;-70
2024/01/15 07:08:16;;;;;;;14.00;7.70;;;-0.40;2.50;;;;;;5013742;28;20737;-70
2024/01/15 07:10:42;;;;;;;17.80;9.30;;;-0.40;1.40;;;;;;5013894;28;20172;-70
2024/01/15 07:13:09;;;;;;;15.37;10.20;;;-0.40;1.00;;;;;;5013430;28;20192;-70
2024/01/15 07:15:34;;;;;;;18.35;9.98;;;-0.40;1.20;;;;;;5013688;28;20494;-70
2024/01/15 07:18:00;;;;;;;15.17;9.83;;;-0.30;1.10;;;;;;4999386;28;20197;-70
2024/01/15 07:20:25;;;;;;;16.40;10.50;;;-0.40;1.00;;;;;;4994131;28;20177;-70
2024/01/15 07:22:51;;;;;;;16.70;9.53;;;-0.30;1.00;;;;;;4993797;28;20216;-70
2024/01/15 07:25:17;;;;;;;14.93;7.83;;;-0.20;1.00;;;;;;4994086;28;20256;-69
2024/01/15 07:27:44;;;;;;;21.80;10.30;;;-0.20;1.00;;;;;;4994053;28;20239;-68
2024/01/15 07:30:11;;;;;;;14.75;7.70;;;-0.20;1.00;;;;;;4993951;28;20205;-70
2024/01/15 07:32:37;;;;;;;12.60;8.10;;;-0.20;1.00;;;;;;4993789;28;20204;-69
2024/01/15 07:35:02;;;;;;;12.33;7.80;;;-0.10;1.00;;;;;;4993769;28;20580;-68
2024/01/15 07:37:28;;;;;;;12.40;7.20;;;-0.20;1.00;;;;;;4993791;28;20456;-68
2024/01/15 07:39:54;;;;;;;12.10;7.20;;;-0.10;1.00;;;;;;4993626;28;20499;-68
2024/01/15 07:42:19;;;;;;;14.47;7.10;;;-0.10;1.00;;;;;;4993508;28;20180;-69
2024/01/15 07:44:45;;;;;;;8.77;4.90;;;-0.10;1.00;;;;;;4993310;28;20200;-68
2024/01/15 07:47:10;;;;;;;13.80;7.23;;;0.00;1.00;;;;;;4992577;28;20185;-69
2024/01/15 07:49:36;;;;;;;10.23;5.30;;;0.10;1.00;;;;;;5008008;28;20270;-68
2024/01/15 07:52:02;;;;;;;11.13;5.43;;;0.10;1.00;;;;;;5013801;28;20655;-69
2024/01/15 07:54:27;;;;;;;7.90;5.82;;;0.10;1.00;;;;;;5015721;28;20219;-68
2024/01/15 07:57:03;;;;;;;7.80;4.10;;;0.20;1.00;;;;;;5013051;28;20712;-70
2024/01/15 07:59:28;;;;;;;14.50;6.10;;;0.30;1.00;;;;;;5012105;28;20538;-68
2024/01/15 08:01:54;;;;;;;8.67;4.70;;;0.40;1.00;;;;;;5012760;28;20192;-68
2024/01/15 08:04:20;;;;;;;6.63;4.83;;;0.50;1.00;;;;;;4995485;28;20318;-68
2024/01/15 08:06:46;;;;;;;9.60;6.38;;;0.50;1.00;;;;;;5011652;28;20191;-68
2024/01/15 08:09:12;;;;;;;9.63;5.17;;;0.60;1.00;;;;;;5012662;28;20208;-68
2024/01/15 08:11:41;;;;;;;7.00;4.05;;;0.70;1.00;;;;;;5007092;28;20178;-69
2024/01/15 08:14:07;;;;;;;8.93;4.63;;;0.70;1.00;;;;;;5003168;28;20204;-68
2024/01/15 08:16:33;;;;;;;10.00;4.53;;;0.70;1.00;;;;;;5007399;28;20576;-68
2024/01/15 08:18:59;;;;;;;10.03;5.20;;;0.80;1.00;;;;;;5008023;28;20420;-69
2024/01/15 08:21:24;;;;;;;5.33;3.57;;;0.80;1.00;;;;;;5008509;28;20183;-68
2024/01/15 08:23:50;;;;;;;7.90;4.20;;;0.80;1.00;;;;;;5008621;28;20204;-69
2024/01/15 08:26:15;;;;;;;6.23;3.87;;;0.80;1.00;;;;;;5008351;28;20243;-68
2024/01/15 08:28:41;;;;;;;4.30;2.60;;;0.90;1.00;;;;;;5008817;28;20203;-68
2024/01/15 08:31:10;;;;;;;5.30;3.60;;;0.90;1.00;;;;;;4990854;28;20199;-69
2024/01/15 08:33:36;;;;;;;4.97;3.30;;;0.90;1.00;;;;;;4990328;28;20196;-68
2024/01/15 08:36:05;;;;;;;6.17;4.70;;;0.90;1.00;;;;;;5009002;28;20180;-71
2024/01/15 08:38:31;;;;;;;5.18;3.28;;;0.90;1.00;;;;;;5008625;28;20282;-68
2024/01/15 08:40:58;;;;;;;9.63;3.80;;;1.00;1.00;;;;;;5008136;28;20188;-69
2024/01/15 08:43:24;;;;;;;6.53;3.90;;;1.00;1.00;;;;;;5007945;28;20286;-70
2024/01/15 08:45:50;;;;;;;8.13;3.33;;;1.00;1.00;;;;;;5008520;28;20275;-69
2024/01/15 08:48:16;;;;;;;8.82;3.75;;;1.10;1.00;;;;;;5007836;28;20735;-69
2024/01/15 08:50:42;;;;;;;4.50;3.17;;;1.10;1.00;;;;;;5008285;28;20180;-69
2024/01/15 08:53:07;;;;;;;4.80;3.13;;;1.20;1.00;;;;;;5008567;28;20196;-70
2024/01/15 08:55:33;;;;;;;8.10;4.17;;;1.20;1.00;;;;;;5006794;28;20207;-70
2024/01/15 08:57:59;;;;;;;6.05;3.47;;;1.20;1.00;;;;;;5007703;28;20195;-69
2024/01/15 09:00:24;;;;;;;7.17;3.37;;;1.20;1.00;;;;;;5008219;28;20188;-69
2024/01/15 09:02:50;;;;;;;5.50;2.20;;;1.30;1.00;;;;;;5007593;28;20239;-69
2024/01/15 09:05:15;;;;;;;5.27;3.40;;;1.30;1.00;;;;;;5007543;28;20188;-70
2024/01/15 09:07:41;;;;;;;3.70;2.57;;;1.20;1.00;;;;;;4989707;28;20668;-70
2024/01/15 09:10:07;;;;;;;4.43;3.37;;;1.30;1.00;;;;;;5007584;28;20200;-70
2024/01/15 09:12:32;;;;;;;3.10;2.20;;;1.30;1.00;;;;;;5008143;28;20188;-70
2024/01/15 09:14:58;;;;;;;7.23;4.40;;;1.20;1.00;;;;;;5003222;28;20525;-71
2024/01/15 09:17:24;;;;;;;5.03;2.43;;;1.50;1.00;;;;;;5027455;28;20194;-70
2024/01/15 09:19:50;;;;;;;4.27;2.20;;;1.50;1.00;;;;;;5027920;28;20629;-69
2024/01/15 09:22:18;;;;;;;3.20;2.23;;;1.40;1.00;;;;;;5031112;28;20546;-70
2024/01/15 09:24:47;;;;;;;8.35;4.32;;;1.50;1.00;;;;;;5027745;28;20801;-69
2024/01/15 09:27:13;;;;;;;3.47;2.70;;;1.60;1.00;;;;;;5011360;28;20184;-68
2024/01/15 09:29:40;;;;;;;6.40;2.40;;;1.60;1.00;;;;;;5023554;28;20592;-68
2024/01/15 09:32:07;;;;;;;3.78;2.53;;;1.60;1.00;;;;;;5017133;28;20200;-69
2024/01/15 09:34:35;;;;;;;4.45;2.53;;;1.60;1.00;;;;;;5011037;28;20204;-71
2024/01/15 09:37:02;;;;;;;4.82;2.95;;;1.70;1.00;;;;;;4993587;28;20191;-68
2024/01/15 09:39:28;;;;;;;4.85;2.47;;;1.70;1.00;;;;;;5011971;28;20189;-68
2024/01/15 09:41:54;;;;;;;2.67;2.03;;;1.90;1.00;;;;;;5011233;28;20189;-69
2024/01/15 09:44:21;;;;;;;13.13;2.70;;;1.90;1.00;;;;;;5011226;28;20200;-69
2024/01/15 09:46:51;;;;;;;3.80;2.03;;;1.90;1.00;;;;;;5011404;28;20190;-69
2024/01/15 09:49:17;;;;;;;4.40;2.67;;;1.90;1.00;;;;;;5011065;28;20879;-68
2024/01/15 09:51:44;;;;;;;3.72;2.33;;;1.90;1.00;;;;;;5011031;28;20177;-67
2024/01/15 09:54:13;;;;;;;4.45;2.63;;;1.90;1.00;;;;;;5010739;28;20240;-69
2024/01/15 09:56:39;;;;;;;3.30;2.10;;;2.20;1.00;;;;;;5011248;28;20224;-69
2024/01/15 09:59:06;;;;;;;3.00;1.90;;;2.20;1.00;;;;;;5010798;28;20185;-70
2024/01/15 10:01:32;;;;;;;5.57;2.85;;;2.30;1.00;;;;;;5011127;28;20186;-69
2024/01/15 10:03:58;;;;;;;5.30;2.77;;;2.40;1.00;;;;;;5010941;28;20214;-68
2024/01/15 10:06:27;;;;;;;4.63;2.40;;;2.30;1.00;;;;;;5011304;28;20507;-69
2024/01/15 10:08:55;;;;;;;5.57;2.38;;;2.50;1.00;;;;;;5011233;28;20233;-68
2024/01/15 10:11:21;;;;;;;4.30;3.10;;;2.40;1.00;;;;;;5013563;28;20199;-69
2024/01/15 10:13:47;;;;;;;4.60;2.10;;;2.40;1.00;;;;;;5014892;28;20559;-72
2024/01/15 10:16:12;;;;;;;5.43;3.17;;;2.50;1.00;;;;;;5015120;28;20189;-68
2024/01/15 10:18:39;;;;;;;4.43;2.00;;;2.50;1.00;;;;;;4997492;28;20174;-72
2024/01/15 10:21:08;;;;;;;3.67;1.90;;;2.70;1.00;;;;;;5015003;28;20169;-70
2024/01/15 10:23:33;;;;;;;5.43;3.10;;;2.80;1.00;;;;;;5015360;28;20207;-69
2024/01/15 10:26:00;;;;;;;3.33;2.10;;;2.70;1.00;;;;;;5015127;28;20175;-70
2024/01/15 10:28:30;;;;;;;4.28;2.63;;;2.80;1.00;;;;;;5014768;28;20201;-70
2024/01/15 10:30:57;;;;;;;7.72;2.70;;;2.80;1.00;;;;;;5014631;28;20682;-68
2024/01/15 10:33:26;;;;;;;4.40;3.00;;;2.80;1.00;;;;;;5014511;28;20673;-70
2024/01/15 10:35:56;;;;;;;5.35;2.72;;;2.50;1.00;;;;;;4997018;28;20197;-69
2024/01/15 10:38:23;;;;;;;6.20;2.92;;;2.40;1.00;;;;;;5014778;28;20727;-69
2024/01/15 10:40:52;;;;;;;3.33;2.67;;;2.40;1.00;;;;;;5014609;28;20178;-67
2024/01/15 10:43:17;;;;;;;4.93;2.35;;;2.40;1.00;;;;;;5014362;28;20249;-68
2024/01/15 10:45:45;;;;;;;6.37;4.60;;;2.60;1.00;;;;;;5014482;28;20543;-70
2024/01/15 10:48:11;;;;;;;6.18;3.65;;;2.80;1.00;;;;;;5014334;28;20217;-69
2024/01/15 10:50:36;;;;;;;5.30;3.10;;;2.90;1.00;;;;;;4996727;28;20255;-69
2024/01/15 10:53:03;;;;;;;5.73;3.80;;;3.10;1.00;;;;;;5014189;28;21044;-69
2024/01/15 10:55:30;;;;;;;22.13;12.73;;;2.90;1.00;;;;;;5014215;28;20189;-70
2024/01/15 10:57:57;;;;;;;12.03;7.53;;;2.90;1.00;;;;;;4996484;28;20258;-69
2024/01/15 11:00:22;;;;;;;8.65;5.32;;;3.00;1.00;;;;;;5014480;28;20484;-69
2024/01/15 11:02:48;;;;;;;6.13;5.20;;;2.90;1.00;;;;;;5014161;28;20218;-69
2024/01/15 11:05:14;;;;;;;7.17;5.87;;;3.00;1.00;;;;;;5014480;28;20941;-69
2024/01/15 11:07:41;;;;;;;5.63;3.90;;;2.80;1.00;;;;;;5014137;28;20265;-68
2024/01/15 11:10:10;;;;;;;6.28;5.18;;;2.70;1.00;;;;;;5014054;28;20209;-69
2024/01/15 11:12:35;;;;;;;6.70;5.82;;;2.50;1.00;;;;;;5013789;28;20271;-67
2024/01/15 11:15:08;;;;;;;5.30;3.10;;;2.50;1.00;;;;;;5013976;28;20637;-68
2024/01/15 11:18:05;;;;;;;5.30;3.70;;;2.50;1.00;;;;;;4996182;28;20248;-69
2024/01/15 11:20:32;;;;;;;5.18;3.78;;;2.30;1.00;;;;;;4995507;28;20199;-68
2024/01/15 11:22:59;;;;;;;4.00;1.90;;;2.30;1.00;;;;;;4993978;28;20765;-69
2024/01/15 11:25:35;;;;;;;6.15;3.42;;;2.30;1.00;;;;;;4994258;28;20221;-70
2024/01/15 11:28:00;;;;;;;13.18;4.25;;;2.20;1.00;;;;;;4995099;28;20732;-69
2024/01/15 11:30:26;;;;;;;5.30;3.13;;;2.30;1.00;;;;;;4994780;28;20191;-69
2024/01/15 11:32:52;;;;;;;3.40;2.33;;;2.10;1.00;;;;;;4994290;28;20256;-69
2024/01/15 11:35:18;;;;;;;6.47;4.30;;;2.10;1.00;;;;;;4994375;28;20277;-69
2024/01/15 11:37:57;;;;;;;6.60;4.57;;;2.20;1.00;;;;;;4994036;28;20190;-71
2024/01/15 11:40:35;;;;;;;6.15;2.92;;;2.20;1.00;;;;;;4995553;28;20182;-68
2024/01/15 11:43:02;;;;;;;4.15;2.50;;;2.40;1.00;;;;;;4994295;28;20194;-68
2024/01/15 11:45:30;;;;;;;4.43;2.25;;;2.40;1.00;;;;;;4994206;28;20187;-70
2024/01/15 11:48:14;;;;;;;4.93;3.03;;;2.30;1.00;;;;;;4990358;28;20551;-69
2024/01/15 11:50:49;;;;;;;6.57;2.78;;;2.20;1.00;;;;;;5015582;28;20182;-69
2024/01/15 11:53:28;;;;;;;3.92;2.63;;;2.20;1.00;;;;;;5013296;28;20219;-70
2024/01/15 11:55:57;;;;;;;4.57;2.60;;;2.20;1.00;;;;;;5013191;28;20283;-69
2024/01/15 11:58:23;;;;;;;6.68;2.58;;;2.30;1.00;;;;;;5013178;28;20182;-69
2024/01/15 12:00:50;;;;;;;4.50;3.27;;;2.10;1.00;;;;;;5013180;28;20181;-69
2024/01/15 12:03:16;;;;;;;3.22;2.50;;;2.10;1.00;;;;;;5013256;28;20199;-69
2024/01/15 12:05:42;;;;;;;9.03;3.93;;;2.20;1.00;;;;;;5013521;28;20180;-71
2024/01/15 12:08:11;;;;;;;4.18;2.70;;;2.20;1.00;;;;;;5012760;28;20228;-71
2024/01/15 12:10:40;;;;;;;5.20;4.65;;;2.30;1.00;;;;;;5013121;28;20190;-69
2024/01/15 12:13:10;;;;;;;6.78;3.47;;;2.40;1.00;;;;;;4995568;28;20294;-69
2024/01/15 12:15:36;;;;;;;3.67;2.85;;;2.50;1.00;;;;;;4993276;28;20184;-69
2024/01/15 12:18:02;;;;;;;6.55;3.65;;;2.50;1.00;;;;;;4992486;28;20257;-70
2024/01/15 12:20:32;;;;;;;7.93;3.50;;;2.30;1.00;;;;;;4976158;28;20549;-70
2024/01/15 12:22:58;;;;;;;4.50;2.35;;;2.20;1.00;;;;;;5002328;28;20194;-70
2024/01/15 12:25:25;;;;;;;7.63;4.53;;;2.20;1.00;;;;;;5013265;28;20542;-70
2024/01/15 12:27:51;;;;;;;8.95;3.88;;;2.30;1.00;;;;;;5013730;28;20290;-70
2024/01/15 12:30:18;;;;;;;6.68;3.15;;;2.30;1.00;;;;;;5013116;28;20214;-70
2024/01/15 12:32:44;;;;;;;4.45;3.95;;;2.20;1.00;;;;;;5012311;28;20572;-70
2024/01/15 12:35:13;;;;;;;7.27;3.20;;;2.30;1.00;;;;;;5012696;28;20175;-70
2024/01/15 12:37:42;;;;;;;3.88;2.35;;;2.40;1.00;;;;;;5012736;28;20503;-70
2024/01/15 12:40:10;;;;;;;6.38;4.40;;;2.50;1.00;;;;;;5012832;28;20182;-70
2024/01/15 12:42:37;;;;;;;9.68;4.72;;;2.50;1.00;;;;;;5012644;28;20201;-70
2024/01/15 12:45:05;;;;;;;4.88;3.47;;;2.30;1.00;;;;;;5012314;28;20183;-71
2024/01/15 12:47:31;;;;;;;3.53;2.30;;;2.30;1.00;;;;;;5012741;28;20178;-68
2024/01/15 12:49:59;;;;;;;5.10;3.17;;;2.40;1.00;;;;;;5012811;28;20260;-68